createdAt,value
2019-03-24T00:00:58.862Z,47.97
2019-03-24T00:03:28.282Z,53.63
2019-03-24T00:05:57.742Z,58.87
2019-03-24T00:08:27.141Z,44.03
2019-03-24T00:10:56.835Z,57.20
2019-03-24T00:13:26.144Z,56.13
2019-03-24T00:15:55.447Z,39.83
2019-03-24T00:18:24.738Z,49.33
2019-03-24T00:20:54.150Z,54.70
2019-03-24T00:23:23.535Z,46.67
2019-03-24T00:25:52.833Z,66.57
2019-03-24T00:28:22.126Z,60.17
2019-03-24T00:30:51.459Z,41.37
2019-03-24T00:33:20.758Z,54.23
2019-03-24T00:35:50.064Z,42.67
2019-03-24T00:38:19.348Z,50.60
2019-03-24T00:40:48.656Z,44.73
2019-03-24T00:43:18.231Z,45.27
2019-03-24T00:45:47.526Z,45.57
2019-03-24T00:48:16.885Z,45.37
2019-03-24T00:50:46.216Z,38.13
2019-03-24T00:53:15.842Z,46.77
2019-03-24T00:55:45.563Z,43.50
2019-03-24T00:58:14.854Z,44.40
2019-03-24T01:00:46.543Z,48.17
2019-03-24T01:03:16.243Z,41.30
2019-03-24T01:05:46.477Z,49.70
2019-03-24T01:08:15.954Z,42.80
2019-03-24T01:10:45.408Z,47.43
2019-03-24T01:13:15.022Z,48.07
2019-03-24T01:15:47.940Z,51.03
2019-03-24T01:18:15.966Z,42.20
2019-03-24T01:20:45.519Z,44.50
2019-03-24T01:23:14.878Z,45.60
2019-03-24T01:25:44.257Z,44.17
2019-03-24T01:28:13.826Z,48.27
2019-03-24T01:30:43.254Z,40.53
2019-03-24T01:33:12.782Z,50.63
2019-03-24T01:35:42.070Z,47.30
2019-03-24T01:38:11.678Z,45.00
2019-03-24T01:40:40.963Z,42.70
2019-03-24T01:43:10.402Z,36.07
2019-03-24T01:45:39.674Z,39.23
2019-03-24T01:48:09.126Z,43.10
2019-03-24T01:50:38.474Z,44.87
2019-03-24T01:53:08.090Z,52.37
2019-03-24T01:55:37.373Z,48.13
2019-03-24T01:58:06.750Z,44.93
2019-03-24T02:00:36.178Z,47.07
2019-03-24T02:03:05.626Z,51.03
2019-03-24T02:05:34.917Z,45.60
2019-03-24T02:08:04.290Z,48.83
2019-03-24T02:10:34.482Z,49.17
2019-03-24T02:13:04.114Z,47.30
2019-03-24T02:15:33.539Z,44.23
2019-03-24T02:18:02.931Z,55.40
2019-03-24T02:20:32.282Z,60.67
2019-03-24T02:23:01.586Z,54.77
2019-03-24T02:25:30.938Z,47.03
2019-03-24T02:28:00.299Z,42.00
2019-03-24T02:30:30.099Z,39.17
2019-03-24T02:32:59.487Z,52.30
2019-03-24T02:35:29.107Z,42.70
2019-03-24T02:37:58.401Z,38.33
2019-03-24T02:40:27.695Z,48.73
2019-03-24T02:42:57.278Z,49.77
2019-03-24T02:45:26.563Z,47.83
2019-03-24T02:47:55.915Z,44.70
2019-03-24T02:50:25.521Z,39.73
2019-03-24T02:52:54.907Z,39.03
2019-03-24T02:55:24.478Z,45.40
2019-03-24T02:57:53.788Z,45.00
2019-03-24T03:00:23.072Z,46.37
2019-03-24T03:02:52.383Z,42.07
2019-03-24T03:05:21.995Z,46.53
2019-03-24T03:07:51.287Z,42.60
2019-03-24T03:10:20.735Z,39.70
2019-03-24T03:12:50.111Z,40.03
2019-03-24T03:15:19.470Z,50.33
2019-03-24T03:17:48.940Z,52.07
2019-03-24T03:20:18.382Z,48.17
2019-03-24T03:22:47.748Z,36.93
2019-03-24T03:25:17.046Z,44.27
2019-03-24T03:27:46.337Z,58.00
2019-03-24T03:30:16.318Z,64.10
2019-03-24T03:32:45.635Z,46.87
2019-03-24T03:35:15.353Z,54.23
2019-03-24T03:37:44.688Z,60.17
2019-03-24T03:40:14.287Z,59.63
2019-03-24T03:42:43.627Z,55.07
2019-03-24T03:45:13.387Z,49.77
2019-03-24T03:47:42.691Z,56.03
2019-03-24T03:50:12.459Z,65.27
2019-03-24T03:52:41.732Z,57.70
2019-03-24T03:55:11.451Z,56.77
2019-03-24T03:57:40.768Z,79.63
2019-03-24T04:00:10.618Z,52.77
2019-03-24T04:02:39.907Z,52.07
2019-03-24T04:05:09.483Z,67.53
2019-03-24T04:07:38.775Z,51.77
2019-03-24T04:10:08.302Z,59.30
2019-03-24T04:12:37.659Z,68.30
2019-03-24T04:15:07.341Z,68.70
2019-03-24T04:17:36.713Z,56.10
2019-03-24T04:20:06.422Z,47.27
2019-03-24T04:22:35.712Z,61.80
2019-03-24T04:25:05.332Z,52.17
2019-03-24T04:27:34.704Z,55.23
2019-03-24T04:30:04.364Z,44.63
2019-03-24T04:32:33.658Z,41.37
2019-03-24T04:35:03.308Z,46.97
2019-03-24T04:37:33.213Z,50.27
2019-03-24T04:40:02.568Z,44.43
2019-03-24T04:42:32.107Z,45.53
2019-03-24T04:45:01.750Z,48.37
2019-03-24T04:47:31.035Z,42.00
2019-03-24T04:50:00.347Z,44.30
2019-03-24T04:52:29.631Z,37.70
2019-03-24T04:54:58.950Z,44.50
2019-03-24T04:57:28.247Z,44.23
2019-03-24T04:59:57.534Z,47.53
2019-03-24T05:02:27.289Z,47.97
2019-03-24T05:04:56.630Z,41.60
2019-03-24T05:07:26.273Z,51.80
2019-03-24T05:09:56.307Z,62.20
2019-03-24T05:12:25.611Z,42.10
2019-03-24T05:14:54.906Z,39.83
2019-03-24T05:17:27.248Z,49.97
2019-03-24T05:19:55.214Z,45.73
2019-03-24T05:22:24.620Z,55.33
2019-03-24T05:24:54.493Z,39.80
2019-03-24T05:27:23.786Z,42.83
2019-03-24T05:29:53.086Z,48.73
2019-03-24T05:32:22.433Z,50.07
2019-03-24T05:34:51.890Z,38.17
2019-03-24T05:37:21.290Z,54.33
2019-03-24T05:39:50.570Z,53.17
2019-03-24T05:42:20.006Z,51.97
2019-03-24T05:44:49.488Z,44.50
2019-03-24T05:47:18.955Z,47.13
2019-03-24T05:49:48.319Z,45.23
2019-03-24T05:52:17.640Z,43.63
2019-03-24T05:54:47.008Z,42.80
2019-03-24T05:57:16.330Z,44.33
2019-03-24T05:59:45.692Z,42.80
2019-03-24T06:02:15.304Z,37.70
2019-03-24T06:04:45.347Z,44.17
2019-03-24T06:07:14.954Z,40.77
2019-03-24T06:09:44.558Z,37.33
2019-03-24T06:12:13.914Z,40.87
2019-03-24T06:14:43.222Z,38.13
2019-03-24T06:17:12.521Z,34.03
2019-03-24T06:19:41.874Z,46.97
2019-03-24T06:22:11.254Z,39.30
2019-03-24T06:24:40.538Z,35.57
2019-03-24T06:27:09.861Z,43.50
2019-03-24T06:29:39.137Z,42.57
2019-03-24T06:32:08.439Z,40.43
2019-03-24T06:34:37.774Z,45.40
2019-03-24T06:37:07.149Z,37.33
2019-03-24T06:39:36.434Z,44.50
2019-03-24T06:42:05.858Z,39.27
2019-03-24T06:44:35.158Z,41.63
2019-03-24T06:47:04.522Z,40.30
2019-03-24T06:49:33.827Z,43.40
2019-03-24T06:52:03.123Z,48.13
2019-03-24T06:54:32.424Z,45.20
2019-03-24T06:57:01.743Z,39.57
2019-03-24T06:59:31.037Z,44.10
2019-03-24T07:02:00.406Z,43.17
2019-03-24T07:04:29.726Z,48.27
2019-03-24T07:06:59.014Z,42.53
2019-03-24T07:09:28.670Z,38.43
2019-03-24T07:12:00.100Z,49.83
2019-03-24T07:14:29.140Z,139.97
2019-03-24T07:16:58.431Z,44.93
2019-03-24T07:19:27.730Z,46.47
2019-03-24T07:21:57.018Z,43.60
2019-03-24T07:24:26.325Z,49.27
2019-03-24T07:26:55.606Z,40.03
2019-03-24T07:29:24.902Z,43.47
2019-03-24T07:31:54.185Z,40.93
2019-03-24T07:34:23.830Z,47.00
2019-03-24T07:36:53.110Z,36.90
2019-03-24T07:39:22.411Z,43.83
2019-03-24T07:41:51.770Z,42.83
2019-03-24T07:44:21.142Z,42.03
2019-03-24T07:46:50.435Z,43.33
2019-03-24T07:49:19.742Z,37.67
2019-03-24T07:51:49.130Z,42.90
2019-03-24T07:54:18.455Z,42.47
2019-03-24T07:56:47.759Z,40.43
2019-03-24T07:59:17.066Z,39.00
2019-03-24T08:01:46.358Z,46.60
2019-03-24T08:04:16.486Z,43.33
2019-03-24T08:06:45.770Z,42.97
2019-03-24T08:09:15.082Z,39.73
2019-03-24T08:11:44.481Z,43.07
2019-03-24T08:14:13.774Z,40.93
2019-03-24T08:16:43.572Z,43.67
2019-03-24T08:19:13.144Z,44.40
2019-03-24T08:21:42.462Z,44.30
2019-03-24T08:24:11.766Z,41.87
2019-03-24T08:26:41.322Z,39.07
2019-03-24T08:29:10.609Z,39.57
2019-03-24T08:31:39.913Z,40.93
2019-03-24T08:34:09.303Z,47.93
2019-03-24T08:36:38.622Z,44.13
2019-03-24T08:39:08.059Z,42.07
2019-03-24T08:41:38.772Z,39.10
2019-03-24T08:44:08.370Z,41.37
2019-03-24T08:46:37.663Z,41.73
2019-03-24T08:49:07.242Z,42.63
2019-03-24T08:51:36.574Z,36.67
2019-03-24T08:54:06.030Z,43.00
2019-03-24T08:56:35.342Z,49.80
2019-03-24T08:59:04.914Z,46.97
2019-03-24T09:01:34.231Z,52.67
2019-03-24T09:04:03.507Z,48.67
2019-03-24T09:06:32.807Z,47.03
2019-03-24T09:09:02.099Z,53.93
2019-03-24T09:11:31.719Z,44.03
2019-03-24T09:14:01.162Z,67.13
2019-03-24T09:16:30.884Z,53.13
2019-03-24T09:19:00.238Z,43.50
2019-03-24T09:21:29.565Z,42.63
2019-03-24T09:23:58.886Z,47.60
2019-03-24T09:26:28.235Z,43.23
2019-03-24T09:28:59.324Z,45.03
2019-03-24T09:31:28.909Z,45.53
2019-03-24T09:33:58.214Z,44.27
2019-03-24T09:36:27.538Z,40.80
2019-03-24T09:38:56.834Z,43.43
2019-03-24T09:41:26.215Z,48.67
2019-03-24T09:43:55.530Z,42.47
2019-03-24T09:46:24.828Z,46.60
2019-03-24T09:49:02.648Z,41.73
2019-03-24T09:51:25.142Z,42.83
2019-03-24T09:53:54.983Z,41.23
2019-03-24T09:56:24.277Z,45.07
2019-03-24T09:58:53.930Z,38.00
2019-03-24T10:01:23.302Z,39.03
2019-03-24T10:03:53.003Z,41.47
2019-03-24T10:06:22.298Z,40.30
2019-03-24T10:08:51.958Z,35.63
2019-03-24T10:11:21.323Z,42.60
2019-03-24T10:13:50.638Z,39.20
2019-03-24T10:16:20.516Z,42.43
2019-03-24T10:18:49.822Z,40.93
2019-03-24T10:21:19.119Z,34.70
2019-03-24T10:23:48.434Z,41.60
2019-03-24T10:26:18.023Z,41.17
2019-03-24T10:29:06.860Z,37.90
2019-03-24T10:31:36.166Z,39.47
2019-03-24T10:34:05.810Z,35.43
2019-03-24T10:36:35.110Z,37.47
2019-03-24T10:39:05.595Z,36.83
2019-03-24T10:41:35.020Z,51.30
2019-03-24T10:44:04.682Z,44.60
2019-03-24T10:46:33.970Z,39.80
2019-03-24T10:49:03.542Z,39.47
2019-03-24T10:51:32.842Z,34.63
2019-03-24T10:54:02.499Z,39.33
2019-03-24T10:56:31.852Z,40.17
2019-03-24T10:59:01.233Z,37.97
2019-03-24T11:01:30.539Z,34.10
2019-03-24T11:03:59.830Z,45.40
2019-03-24T11:06:48.325Z,57.07
2019-03-24T11:09:17.649Z,38.17
2019-03-24T11:11:46.959Z,36.27
2019-03-24T11:14:16.285Z,34.07
2019-03-24T11:16:45.586Z,34.10
2019-03-24T11:19:15.246Z,36.43
2019-03-24T11:21:44.541Z,32.80
2019-03-24T11:24:13.866Z,30.93
2019-03-24T11:26:43.170Z,31.60
2019-03-24T11:29:12.487Z,28.83
2019-03-24T11:31:42.115Z,31.43
2019-03-24T11:34:11.464Z,34.13
2019-03-24T11:36:40.762Z,32.20
2019-03-24T11:39:10.386Z,32.73
2019-03-24T11:41:39.758Z,44.30
2019-03-24T11:44:09.346Z,36.67
2019-03-24T11:46:38.698Z,32.87
2019-03-24T11:49:16.130Z,48.20
2019-03-24T11:51:45.644Z,31.97
2019-03-24T11:54:14.958Z,30.77
2019-03-24T11:56:44.582Z,44.73
2019-03-24T11:59:13.995Z,77.50
2019-03-24T12:01:43.387Z,35.60
2019-03-24T12:04:12.763Z,36.27
2019-03-24T12:06:42.078Z,35.43
2019-03-24T12:09:11.456Z,29.97
2019-03-24T12:11:40.939Z,31.13
2019-03-24T12:14:10.667Z,29.60
2019-03-24T12:16:40.090Z,30.63
2019-03-24T12:19:09.394Z,29.97
2019-03-24T12:21:38.727Z,36.67
2019-03-24T12:24:08.050Z,29.23
2019-03-24T12:26:37.379Z,31.27
2019-03-24T12:29:06.697Z,33.10
2019-03-24T12:31:36.436Z,32.97
2019-03-24T12:34:05.815Z,40.17
2019-03-24T12:36:35.130Z,46.07
2019-03-24T12:39:05.414Z,26.30
2019-03-24T12:41:34.729Z,28.27
2019-03-24T12:44:04.347Z,69.57
2019-03-24T12:46:33.662Z,25.80
2019-03-24T12:49:03.023Z,24.40
2019-03-24T12:51:32.351Z,20.37
2019-03-24T12:54:01.671Z,20.07
2019-03-24T12:56:31.061Z,16.48
2019-03-24T12:59:00.717Z,23.83
2019-03-24T13:01:30.035Z,19.03
2019-03-24T13:03:59.367Z,13.60
2019-03-24T13:06:28.695Z,13.67
2019-03-24T13:08:58.007Z,12.33
2019-03-24T13:11:27.622Z,14.15
2019-03-24T13:13:56.987Z,12.50
2019-03-24T13:16:26.494Z,10.93
2019-03-24T13:18:55.930Z,12.05
2019-03-24T13:21:25.459Z,10.43
2019-03-24T13:23:54.805Z,9.98
2019-03-24T13:26:24.102Z,10.50
2019-03-24T13:28:53.434Z,9.90
2019-03-24T13:31:22.845Z,10.18
2019-03-24T13:33:52.209Z,10.10
2019-03-24T13:36:21.567Z,10.03
2019-03-24T13:38:50.867Z,9.75
2019-03-24T13:41:20.230Z,10.93
2019-03-24T13:43:49.691Z,8.63
2019-03-24T13:46:18.993Z,10.15
2019-03-24T13:48:48.330Z,11.03
2019-03-24T13:51:17.647Z,11.45
2019-03-24T13:53:47.150Z,10.25
2019-03-24T13:56:16.499Z,10.15
2019-03-24T13:58:45.852Z,12.73
2019-03-24T14:01:15.891Z,9.60
2019-03-24T14:03:45.291Z,9.80
2019-03-24T14:06:14.602Z,11.68
2019-03-24T14:08:43.926Z,9.83
2019-03-24T14:11:13.582Z,8.28
2019-03-24T14:13:43.001Z,7.45
2019-03-24T14:16:12.387Z,7.92
2019-03-24T14:18:41.911Z,7.80
2019-03-24T14:21:11.356Z,7.72
2019-03-24T14:23:40.860Z,8.60
2019-03-24T14:26:10.246Z,8.38
2019-03-24T14:28:39.855Z,33.05
2019-03-24T14:31:09.151Z,37.35
2019-03-24T14:33:38.469Z,5.83
2019-03-24T14:36:07.774Z,7.40
2019-03-24T14:38:37.081Z,9.43
2019-03-24T14:41:06.374Z,8.03
2019-03-24T14:43:35.766Z,7.40
2019-03-24T14:46:05.217Z,7.17
2019-03-24T14:48:36.285Z,5.97
2019-03-24T14:51:05.782Z,8.50
2019-03-24T14:53:35.089Z,8.03
2019-03-24T14:56:04.822Z,9.15
2019-03-24T14:58:34.203Z,6.90
2019-03-24T15:01:03.582Z,7.45
2019-03-24T15:03:32.895Z,8.08
2019-03-24T15:06:02.194Z,9.95
2019-03-24T15:08:31.599Z,10.70
2019-03-24T15:11:00.983Z,11.05
2019-03-24T15:13:30.295Z,9.68
2019-03-24T15:16:00.605Z,11.48
2019-03-24T15:18:29.899Z,11.65
2019-03-24T15:21:05.581Z,10.48
2019-03-24T15:23:30.218Z,8.35
2019-03-24T15:25:59.540Z,11.28
2019-03-24T15:28:28.868Z,9.98
2019-03-24T15:30:58.267Z,12.47
2019-03-24T15:33:27.692Z,11.28
2019-03-24T15:35:57.010Z,10.72
2019-03-24T15:38:26.320Z,10.95
2019-03-24T15:40:55.695Z,11.95
2019-03-24T15:43:25.002Z,10.30
2019-03-24T15:45:54.312Z,9.40
2019-03-24T15:48:23.614Z,10.23
2019-03-24T15:50:52.938Z,13.05
2019-03-24T15:53:22.402Z,10.43
2019-03-24T15:55:52.067Z,10.48
2019-03-24T15:58:21.382Z,14.65
2019-03-24T16:00:50.786Z,14.33
2019-03-24T16:03:20.178Z,16.50
2019-03-24T16:05:49.635Z,10.13
2019-03-24T16:08:19.406Z,13.65
2019-03-24T16:10:48.725Z,11.05
2019-03-24T16:13:18.019Z,10.03
2019-03-24T16:15:47.327Z,10.80
2019-03-24T16:18:16.626Z,10.60
2019-03-24T16:20:45.933Z,7.97
2019-03-24T16:23:15.234Z,11.53
2019-03-24T16:25:44.618Z,10.70
2019-03-24T16:28:14.198Z,9.80
2019-03-24T16:30:43.609Z,8.70
2019-03-24T16:33:13.286Z,13.30
2019-03-24T16:35:42.720Z,11.33
2019-03-24T16:38:12.118Z,24.93
2019-03-24T16:40:41.611Z,32.60
2019-03-24T16:43:11.002Z,32.70
2019-03-24T16:45:40.603Z,23.10
2019-03-24T16:48:09.903Z,33.87
2019-03-24T16:50:39.379Z,36.10
2019-03-24T16:53:08.746Z,20.77
2019-03-24T16:55:38.731Z,19.43
2019-03-24T16:58:08.059Z,36.00
2019-03-24T17:00:37.350Z,46.57
2019-03-24T17:03:06.749Z,22.20
2019-03-24T17:05:36.218Z,26.20
2019-03-24T17:08:05.627Z,22.77
2019-03-24T17:10:35.154Z,39.87
2019-03-24T17:13:04.886Z,16.30
2019-03-24T17:15:34.425Z,16.57
2019-03-24T17:18:03.895Z,10.37
2019-03-24T17:20:33.176Z,10.70
2019-03-24T17:23:02.947Z,10.37
2019-03-24T17:25:32.263Z,45.97
2019-03-24T17:28:01.600Z,14.70
2019-03-24T17:30:30.914Z,27.67
2019-03-24T17:33:00.307Z,12.97
2019-03-24T17:35:29.893Z,13.63
2019-03-24T17:37:59.537Z,12.47
2019-03-24T17:40:28.823Z,17.83
2019-03-24T17:42:58.745Z,10.43
2019-03-24T17:45:28.038Z,24.77
2019-03-24T17:47:57.346Z,14.40
2019-03-24T17:50:26.651Z,15.73
2019-03-24T17:52:56.206Z,11.77
2019-03-24T17:55:27.817Z,32.93
2019-03-24T17:57:56.849Z,12.43
2019-03-24T18:00:37.519Z,9.50
2019-03-24T18:03:07.023Z,11.87
2019-03-24T18:05:36.375Z,11.13
2019-03-24T18:08:06.103Z,10.53
2019-03-24T18:10:35.390Z,13.93
2019-03-24T18:13:05.288Z,17.13
2019-03-24T18:15:34.768Z,9.47
2019-03-24T18:18:04.227Z,7.07
2019-03-24T18:20:34.567Z,17.43
2019-03-24T18:23:04.238Z,9.93
2019-03-24T18:25:33.619Z,9.97
2019-03-24T18:28:02.998Z,10.03
2019-03-24T18:30:32.367Z,12.80
2019-03-24T18:33:01.667Z,10.47
2019-03-24T18:35:30.962Z,12.73
2019-03-24T18:38:00.267Z,12.50
2019-03-24T18:40:29.630Z,9.77
2019-03-24T18:42:59.199Z,11.63
2019-03-24T18:45:28.473Z,12.77
2019-03-24T18:47:58.134Z,8.17
2019-03-24T18:50:27.510Z,7.93
2019-03-24T18:52:56.795Z,8.40
2019-03-24T18:55:26.440Z,10.00
2019-03-24T18:57:55.968Z,7.43
2019-03-24T19:00:25.335Z,9.37
2019-03-24T19:02:54.625Z,11.33
2019-03-24T19:05:23.919Z,13.67
2019-03-24T19:07:53.193Z,8.57
2019-03-24T19:10:22.661Z,8.30
2019-03-24T19:12:51.978Z,10.37
2019-03-24T19:15:21.420Z,9.17
2019-03-24T19:17:51.050Z,10.63
2019-03-24T19:20:20.504Z,9.40
2019-03-24T19:22:49.830Z,10.30
2019-03-24T19:25:19.379Z,6.53
2019-03-24T19:27:48.741Z,7.17
2019-03-24T19:30:18.953Z,13.10
2019-03-24T19:32:48.834Z,9.23
2019-03-24T19:35:18.491Z,8.90
2019-03-24T19:37:47.851Z,8.37
2019-03-24T19:40:27.723Z,8.27
2019-03-24T19:42:57.380Z,10.93
2019-03-24T19:45:27.056Z,13.20
2019-03-24T19:47:57.291Z,8.93
2019-03-24T19:50:26.763Z,7.83
2019-03-24T19:52:56.113Z,9.10
2019-03-24T19:55:25.474Z,9.63
2019-03-24T19:57:55.167Z,10.73
2019-03-24T20:00:24.610Z,7.27
2019-03-24T20:02:54.206Z,7.77
2019-03-24T20:05:23.870Z,9.87
2019-03-24T20:07:53.311Z,9.27
2019-03-24T20:10:23.117Z,7.97
2019-03-24T20:12:52.394Z,10.23
2019-03-24T20:15:21.774Z,8.23
2019-03-24T20:17:51.130Z,8.97
2019-03-24T20:20:20.599Z,9.60
2019-03-24T20:22:56.454Z,8.90
2019-03-24T20:25:20.968Z,8.30
2019-03-24T20:27:50.349Z,12.30
2019-03-24T20:30:20.006Z,6.50
2019-03-24T20:32:49.646Z,5.93
2019-03-24T20:35:19.027Z,7.30
2019-03-24T20:37:48.606Z,10.73
2019-03-24T20:40:18.056Z,9.00
2019-03-24T20:42:47.353Z,8.30
2019-03-24T20:45:16.738Z,7.20
2019-03-24T20:47:46.380Z,7.63
2019-03-24T20:50:16.034Z,8.67
2019-03-24T20:52:45.401Z,9.37
2019-03-24T20:55:14.764Z,8.13
2019-03-24T20:57:44.350Z,4.80
2019-03-24T21:00:14.835Z,7.60
2019-03-24T21:02:44.158Z,7.80
2019-03-24T21:05:13.674Z,10.10
2019-03-24T21:07:43.114Z,287.53
2019-03-24T21:10:12.885Z,17.23
2019-03-24T21:12:42.739Z,8.93
2019-03-24T21:15:12.114Z,10.57
2019-03-24T21:17:41.420Z,9.07
2019-03-24T21:20:10.895Z,10.33
2019-03-24T21:22:40.189Z,9.57
2019-03-24T21:25:09.954Z,6.93
2019-03-24T21:27:39.402Z,9.03
2019-03-24T21:30:09.586Z,7.10
2019-03-24T21:32:38.883Z,10.60
2019-03-24T21:35:08.655Z,7.20
2019-03-24T21:37:38.119Z,9.10
2019-03-24T21:40:07.767Z,9.97
2019-03-24T21:42:37.142Z,10.53
2019-03-24T21:45:07.075Z,10.77
2019-03-24T21:47:36.386Z,8.90
2019-03-24T21:50:06.423Z,6.97
2019-03-24T21:52:35.767Z,7.90
2019-03-24T21:55:05.363Z,7.60
2019-03-24T21:57:35.034Z,11.87
2019-03-24T22:00:05.702Z,8.87
2019-03-24T22:02:34.993Z,8.93
2019-03-24T22:05:04.698Z,7.37
2019-03-24T22:07:33.995Z,7.70
2019-03-24T22:10:03.697Z,9.97
2019-03-24T22:12:32.982Z,11.07
2019-03-24T22:15:02.297Z,18.13
2019-03-24T22:17:32.025Z,9.33
2019-03-24T22:20:01.758Z,10.53
2019-03-24T22:22:31.177Z,10.87
2019-03-24T22:25:00.506Z,11.93
2019-03-24T22:27:30.561Z,11.70
2019-03-24T22:29:59.866Z,8.87
2019-03-24T22:32:29.168Z,11.93
2019-03-24T22:34:58.487Z,10.80
2019-03-24T22:37:28.091Z,14.60
2019-03-24T22:39:57.739Z,11.63
2019-03-24T22:42:27.375Z,9.10
2019-03-24T22:44:56.754Z,9.73
2019-03-24T22:47:26.334Z,12.47
2019-03-24T22:49:55.638Z,14.23
2019-03-24T22:52:24.917Z,9.03
2019-03-24T22:54:54.231Z,10.70
2019-03-24T22:57:23.514Z,10.00
2019-03-24T22:59:52.814Z,9.03
2019-03-24T23:02:22.365Z,6.90
2019-03-24T23:04:51.650Z,12.10
2019-03-24T23:07:59.091Z,8.43
2019-03-24T23:10:28.416Z,11.83
2019-03-24T23:12:57.715Z,14.20
2019-03-24T23:15:27.511Z,8.47
2019-03-24T23:17:56.882Z,9.87
2019-03-24T23:20:26.480Z,11.80
2019-03-24T23:22:55.790Z,12.67
2019-03-24T23:25:25.190Z,10.97
2019-03-24T23:27:54.540Z,8.57
2019-03-24T23:30:23.920Z,12.50
2019-03-24T23:32:53.258Z,8.93
2019-03-24T23:35:22.582Z,12.27
2019-03-24T23:37:51.879Z,9.13
2019-03-24T23:40:21.191Z,10.80
2019-03-24T23:42:50.490Z,12.30
2019-03-24T23:45:20.135Z,11.63
2019-03-24T23:47:49.426Z,11.43
2019-03-24T23:50:19.185Z,9.43
2019-03-24T23:52:48.567Z,9.97
2019-03-24T23:55:17.917Z,14.80
2019-03-24T23:57:47.426Z,9.23
